sensor_id;sensor_type;location;lat;lon;timestamp;pressure;altitude;pressure_sealevel;temperature;humidity
43125;BME280;49182;50.788;7.318;2024-03-02T00:04:03;99521.53;;;5.75;92.06
43125;BME280;49182;50.788;7.318;2024-03-02T00:09:05;99520.97;;;5.71;94.36
43125;BME280;49182;50.788;7.318;2024-03-02T00:14:07;99518.03;;;5.85;93.82
43125;BME280;49182;50.788;7.318;2024-03-02T00:19:11;99517.16;;;6.05;93.48
43125;BME280;49182;50.788;7.318;2024-03-02T00:24:19;99510.72;;;6.09;93.00
43125;BME280;49182;50.788;7.318;2024-03-02T00:29:22;99503.19;;;6.35;91.50
43125;BME280;49182;50.788;7.318;2024-03-02T00:34:25;99492.19;;;6.51;90.02
43125;BME280;49182;50.788;7.318;2024-03-02T00:39:27;99502.69;;;6.70;89.21
43125;BME280;49182;50.788;7.318;2024-03-02T00:44:29;99497.44;;;6.70;88.96
43125;BME280;49182;50.788;7.318;2024-03-02T00:49:32;99483.50;;;6.79;88.76
43125;BME280;49182;50.788;7.318;2024-03-02T00:54:34;99483.50;;;6.89;87.57
43125;BME280;49182;50.788;7.318;2024-03-02T00:59:35;99470.09;;;6.82;87.80
43125;BME280;49182;50.788;7.318;2024-03-02T01:04:38;99473.28;;;6.76;88.00
43125;BME280;49182;50.788;7.318;2024-03-02T01:09:40;99465.97;;;6.70;88.33
43125;BME280;49182;50.788;7.318;2024-03-02T01:14:42;99467.63;;;6.71;88.93
43125;BME280;49182;50.788;7.318;2024-03-02T01:19:45;99462.91;;;6.75;87.50
43125;BME280;49182;50.788;7.318;2024-03-02T01:24:47;99455.63;;;6.78;87.92
43125;BME280;49182;50.788;7.318;2024-03-02T01:29:48;99460.88;;;6.78;87.00
43125;BME280;49182;50.788;7.318;2024-03-02T01:34:52;99463.91;;;6.64;87.31
43125;BME280;49182;50.788;7.318;2024-03-02T01:39:53;99461.78;;;6.48;87.57
43125;BME280;49182;50.788;7.318;2024-03-02T01:44:55;99460.44;;;6.35;88.86
43125;BME280;49182;50.788;7.318;2024-03-02T01:49:58;99459.19;;;6.29;88.10
43125;BME280;49182;50.788;7.318;2024-03-02T01:55:00;99456.94;;;6.25;89.69
43125;BME280;49182;50.788;7.318;2024-03-02T02:00:02;99418.84;;;6.11;89.12
43125;BME280;49182;50.788;7.318;2024-03-02T02:05:13;99441.75;;;6.19;88.91
43125;BME280;49182;50.788;7.318;2024-03-02T02:10:15;99448.78;;;6.08;88.52
43125;BME280;49182;50.788;7.318;2024-03-02T02:15:24;99453.97;;;5.99;89.69
43125;BME280;49182;50.788;7.318;2024-03-02T02:20:27;99424.94;;;5.72;90.35
43125;BME280;49182;50.788;7.318;2024-03-02T02:25:30;99433.34;;;5.75;92.53
43125;BME280;49182;50.788;7.318;2024-03-02T02:30:32;99431.44;;;5.77;91.17
43125;BME280;49182;50.788;7.318;2024-03-02T02:35:34;99417.31;;;5.68;91.78
43125;BME280;49182;50.788;7.318;2024-03-02T02:40:37;99421.34;;;5.73;91.87
43125;BME280;49182;50.788;7.318;2024-03-02T02:45:39;99413.19;;;5.66;91.17
43125;BME280;49182;50.788;7.318;2024-03-02T02:50:41;99400.22;;;5.55;92.40
43125;BME280;49182;50.788;7.318;2024-03-02T02:55:44;99401.16;;;5.54;92.35
43125;BME280;49182;50.788;7.318;2024-03-02T03:00:46;99404.53;;;5.75;91.74
43125;BME280;49182;50.788;7.318;2024-03-02T03:05:48;99406.31;;;5.65;92.12
43125;BME280;49182;50.788;7.318;2024-03-02T03:10:52;99400.94;;;5.66;92.91
43125;BME280;49182;50.788;7.318;2024-03-02T03:15:54;99428.91;;;5.66;92.83
43125;BME280;49182;50.788;7.318;2024-03-02T03:20:56;99416.22;;;5.92;91.47
43125;BME280;49182;50.788;7.318;2024-03-02T03:25:59;99421.88;;;6.06;89.77
43125;BME280;49182;50.788;7.318;2024-03-02T03:31:00;99421.81;;;5.87;90.79
43125;BME280;49182;50.788;7.318;2024-03-02T03:36:02;99429.22;;;5.82;91.28
43125;BME280;49182;50.788;7.318;2024-03-02T03:41:06;99389.75;;;5.55;90.92
43125;BME280;49182;50.788;7.318;2024-03-02T03:46:07;99431.66;;;5.64;90.45
43125;BME280;49182;50.788;7.318;2024-03-02T03:51:09;99424.88;;;5.62;91.90
43125;BME280;49182;50.788;7.318;2024-03-02T03:56:12;99436.16;;;5.53;92.62
43125;BME280;49182;50.788;7.318;2024-03-02T04:01:14;99439.28;;;5.47;92.98
43125;BME280;49182;50.788;7.318;2024-03-02T04:06:15;99437.50;;;5.47;93.65
43125;BME280;49182;50.788;7.318;2024-03-02T04:11:19;99429.38;;;5.50;95.04
43125;BME280;49182;50.788;7.318;2024-03-02T04:16:20;99420.34;;;5.64;94.58
43125;BME280;49182;50.788;7.318;2024-03-02T04:21:22;99426.81;;;5.60;94.63
43125;BME280;49182;50.788;7.318;2024-03-02T04:26:25;99413.84;;;5.28;95.17
43125;BME280;49182;50.788;7.318;2024-03-02T04:31:27;99443.47;;;5.28;95.65
43125;BME280;49182;50.788;7.318;2024-03-02T04:36:29;99448.06;;;5.15;95.24
43125;BME280;49182;50.788;7.318;2024-03-02T04:41:32;99442.66;;;5.07;95.90
43125;BME280;49182;50.788;7.318;2024-03-02T04:46:33;99452.22;;;4.97;95.63
43125;BME280;49182;50.788;7.318;2024-03-02T04:51:35;99448.53;;;4.79;95.68
43125;BME280;49182;50.788;7.318;2024-03-02T04:56:38;99415.31;;;4.38;95.89
43125;BME280;49182;50.788;7.318;2024-03-02T05:01:40;99469.28;;;4.60;97.50
43125;BME280;49182;50.788;7.318;2024-03-02T05:06:42;99480.31;;;4.63;98.97
43125;BME280;49182;50.788;7.318;2024-03-02T05:11:45;99471.38;;;4.66;100.00
43125;BME280;49182;50.788;7.318;2024-03-02T05:16:46;99486.00;;;4.68;100.00
43125;BME280;49182;50.788;7.318;2024-03-02T05:21:48;99489.81;;;4.64;100.00
43125;BME280;49182;50.788;7.318;2024-03-02T05:26:51;99481.91;;;4.55;100.00
43125;BME280;49182;50.788;7.318;2024-03-02T05:31:53;99491.50;;;4.54;100.00
43125;BME280;49182;50.788;7.318;2024-03-02T05:36:54;99483.94;;;4.40;100.00
43125;BME280;49182;50.788;7.318;2024-03-02T05:41:57;99480.03;;;4.34;100.00
43125;BME280;49182;50.788;7.318;2024-03-02T05:47:01;99482.09;;;4.20;100.00
43125;BME280;49182;50.788;7.318;2024-03-02T05:52:03;99484.59;;;4.10;100.00
43125;BME280;49182;50.788;7.318;2024-03-02T05:57:06;99478.19;;;4.03;100.00
43125;BME280;49182;50.788;7.318;2024-03-02T06:02:08;99492.47;;;3.99;100.00
43125;BME280;49182;50.788;7.318;2024-03-02T06:07:09;99500.41;;;3.97;100.00
43125;BME280;49182;50.788;7.318;2024-03-02T06:12:12;99503.84;;;3.98;100.00
43125;BME280;49182;50.788;7.318;2024-03-02T06:17:14;99506.34;;;3.99;100.00
43125;BME280;49182;50.788;7.318;2024-03-02T06:22:16;99513.25;;;4.00;100.00
43125;BME280;49182;50.788;7.318;2024-03-02T06:27:19;99516.91;;;4.09;100.00
43125;BME280;49182;50.788;7.318;2024-03-02T06:32:20;99521.16;;;4.10;100.00
43125;BME280;49182;50.788;7.318;2024-03-02T06:37:22;99524.63;;;4.11;100.00
43125;BME280;49182;50.788;7.318;2024-03-02T06:42:25;99530.41;;;4.14;100.00
43125;BME280;49182;50.788;7.318;2024-03-02T06:47:27;99529.84;;;4.11;100.00
43125;BME280;49182;50.788;7.318;2024-03-02T06:52:28;99456.63;;;3.67;100.00
43125;BME280;49182;50.788;7.318;2024-03-02T06:57:31;99527.81;;;4.03;100.00
43125;BME280;49182;50.788;7.318;2024-03-02T07:02:33;99530.31;;;4.04;100.00
43125;BME280;49182;50.788;7.318;2024-03-02T07:07:35;99524.97;;;4.06;100.00
43125;BME280;49182;50.788;7.318;2024-03-02T07:12:38;99525.56;;;4.10;100.00
43125;BME280;49182;50.788;7.318;2024-03-02T07:17:40;99531.41;;;4.13;100.00
43125;BME280;49182;50.788;7.318;2024-03-02T07:22:41;99504.66;;;4.10;100.00
43125;BME280;49182;50.788;7.318;2024-03-02T07:27:47;99527.69;;;4.38;100.00
43125;BME280;49182;50.788;7.318;2024-03-02T07:32:50;99537.03;;;4.40;100.00
43125;BME280;49182;50.788;7.318;2024-03-02T07:37:51;99555.78;;;4.45;100.00
43125;BME280;49182;50.788;7.318;2024-03-02T07:42:54;99522.44;;;4.49;100.00
43125;BME280;49182;50.788;7.318;2024-03-02T07:47:57;99557.69;;;4.98;100.00
43125;BME280;49182;50.788;7.318;2024-03-02T07:52:58;99561.56;;;5.35;100.00
43125;BME280;49182;50.788;7.318;2024-03-02T07:58:02;99560.78;;;5.86;100.00
43125;BME280;49182;50.788;7.318;2024-03-02T08:03:04;99563.72;;;6.23;100.00
43125;BME280;49182;50.788;7.318;2024-03-02T08:08:06;99559.97;;;6.65;97.26
43125;BME280;49182;50.788;7.318;2024-03-02T08:13:09;99542.03;;;6.99;94.04
43125;BME280;49182;50.788;7.318;2024-03-02T08:18:11;99543.41;;;7.22;94.05
43125;BME280;49182;50.788;7.318;2024-03-02T08:23:12;99546.16;;;7.50;91.71
43125;BME280;49182;50.788;7.318;2024-03-02T08:28:15;99545.94;;;7.90;86.24
43125;BME280;49182;50.788;7.318;2024-03-02T08:33:17;99548.31;;;8.20;84.49
43125;BME280;49182;50.788;7.318;2024-03-02T08:38:19;99544.06;;;8.64;80.49
43125;BME280;49182;50.788;7.318;2024-03-02T08:43:22;99550.34;;;8.99;78.53
43125;BME280;49182;50.788;7.318;2024-03-02T08:48:24;99551.75;;;9.28;75.47
43125;BME280;49182;50.788;7.318;2024-03-02T08:53:26;99567.25;;;9.49;75.40
43125;BME280;49182;50.788;7.318;2024-03-02T08:58:29;99551.56;;;9.91;72.51
43125;BME280;49182;50.788;7.318;2024-03-02T09:03:30;99550.09;;;9.97;71.38
43125;BME280;49182;50.788;7.318;2024-03-02T09:08:32;99558.00;;;9.97;73.49
43125;BME280;49182;50.788;7.318;2024-03-02T09:13:35;99549.28;;;10.22;70.97
43125;BME280;49182;50.788;7.318;2024-03-02T09:18:37;99540.59;;;10.38;71.18
43125;BME280;49182;50.788;7.318;2024-03-02T09:23:39;99542.84;;;10.67;69.23
43125;BME280;49182;50.788;7.318;2024-03-02T09:28:43;99545.00;;;10.87;69.02
43125;BME280;49182;50.788;7.318;2024-03-02T09:33:45;99549.16;;;11.06;67.42
43125;BME280;49182;50.788;7.318;2024-03-02T09:38:47;99454.41;;;10.71;65.32
43125;BME280;49182;50.788;7.318;2024-03-02T09:43:50;99542.25;;;11.38;65.33
43125;BME280;49182;50.788;7.318;2024-03-02T09:48:52;99545.56;;;11.48;64.36
43125;BME280;49182;50.788;7.318;2024-03-02T09:53:55;99538.59;;;11.63;63.59
43125;BME280;49182;50.788;7.318;2024-03-02T09:59:05;99545.22;;;11.75;64.05
43125;BME280;49182;50.788;7.318;2024-03-02T10:04:07;99541.06;;;11.97;62.85
43125;BME280;49182;50.788;7.318;2024-03-02T10:09:09;99550.97;;;11.95;62.97
43125;BME280;49182;50.788;7.318;2024-03-02T10:14:13;99538.22;;;12.06;64.07
43125;BME280;49182;50.788;7.318;2024-03-02T10:19:16;99532.38;;;12.19;63.35
43125;BME280;49182;50.788;7.318;2024-03-02T10:24:19;99526.31;;;12.41;61.52
43125;BME280;49182;50.788;7.318;2024-03-02T10:29:24;99540.00;;;12.53;60.67
43125;BME280;49182;50.788;7.318;2024-03-02T10:34:26;99525.88;;;12.61;60.07
43125;BME280;49182;50.788;7.318;2024-03-02T10:39:28;99535.34;;;12.86;58.97
43125;BME280;49182;50.788;7.318;2024-03-02T10:44:32;99537.69;;;12.81;59.05
43125;BME280;49182;50.788;7.318;2024-03-02T10:49:33;99522.34;;;12.99;58.36
43125;BME280;49182;50.788;7.318;2024-03-02T10:54:35;99511.41;;;13.25;57.23
43125;BME280;49182;50.788;7.318;2024-03-02T10:59:48;99513.97;;;13.18;58.13
43125;BME280;49182;50.788;7.318;2024-03-02T11:04:53;99513.63;;;13.36;59.21
43125;BME280;49182;50.788;7.318;2024-03-02T11:09:59;99505.25;;;13.47;56.51
43125;BME280;49182;50.788;7.318;2024-03-02T11:15:05;99423.63;;;12.82;57.87
43125;BME280;49182;50.788;7.318;2024-03-02T11:20:10;99522.41;;;13.36;56.77
43125;BME280;49182;50.788;7.318;2024-03-02T11:25:23;99516.19;;;13.29;57.80
43125;BME280;49182;50.788;7.318;2024-03-02T11:30:50;99519.81;;;13.28;57.96
43125;BME280;49182;50.788;7.318;2024-03-02T11:35:52;99523.56;;;13.19;57.35
43125;BME280;49182;50.788;7.318;2024-03-02T11:40:53;99504.25;;;13.03;56.98
43125;BME280;49182;50.788;7.318;2024-03-02T11:46:00;99511.34;;;12.87;59.04
43125;BME280;49182;50.788;7.318;2024-03-02T11:51:03;99510.03;;;13.14;58.29
43125;BME280;49182;50.788;7.318;2024-03-02T11:56:06;99494.84;;;13.23;58.85
43125;BME280;49182;50.788;7.318;2024-03-02T12:01:10;99476.56;;;13.51;59.09
43125;BME280;49182;50.788;7.318;2024-03-02T12:06:12;99486.19;;;13.81;57.38
43125;BME280;49182;50.788;7.318;2024-03-02T12:11:14;99484.72;;;13.93;56.14
43125;BME280;49182;50.788;7.318;2024-03-02T12:16:24;99449.56;;;13.76;55.64
43125;BME280;49182;50.788;7.318;2024-03-02T12:21:26;99478.41;;;13.94;55.54
43125;BME280;49182;50.788;7.318;2024-03-02T12:26:29;99462.28;;;13.96;55.26
43125;BME280;49182;50.788;7.318;2024-03-02T12:31:32;99452.75;;;14.01;55.21
43125;BME280;49182;50.788;7.318;2024-03-02T12:36:37;99454.75;;;14.14;56.29
43125;BME280;49182;50.788;7.318;2024-03-02T12:41:39;99459.97;;;14.22;54.90
43125;BME280;49182;50.788;7.318;2024-03-02T12:46:42;99453.13;;;13.98;55.38
43125;BME280;49182;50.788;7.318;2024-03-02T12:51:44;99446.28;;;14.04;56.46
43125;BME280;49182;50.788;7.318;2024-03-02T12:56:46;99432.03;;;14.41;54.71
43125;BME280;49182;50.788;7.318;2024-03-02T13:01:52;99326.94;;;13.96;56.08
43125;BME280;49182;50.788;7.318;2024-03-02T13:06:55;99429.19;;;14.64;54.49
43125;BME280;49182;50.788;7.318;2024-03-02T13:11:57;99439.06;;;14.48;55.19
43125;BME280;49182;50.788;7.318;2024-03-02T13:17:01;99424.56;;;14.51;55.32
43125;BME280;49182;50.788;7.318;2024-03-02T13:22:03;99327.91;;;13.88;54.05
43125;BME280;49182;50.788;7.318;2024-03-02T13:27:05;99418.81;;;14.33;54.05
43125;BME280;49182;50.788;7.318;2024-03-02T13:32:08;99389.09;;;14.37;53.23
43125;BME280;49182;50.788;7.318;2024-03-02T13:37:10;99404.41;;;14.56;54.59
43125;BME280;49182;50.788;7.318;2024-03-02T13:42:12;99395.66;;;14.84;52.31
43125;BME280;49182;50.788;7.318;2024-03-02T13:47:15;99397.50;;;14.83;53.11
43125;BME280;49182;50.788;7.318;2024-03-02T13:52:17;99389.34;;;14.85;52.42
43125;BME280;49182;50.788;7.318;2024-03-02T13:57:19;99372.38;;;14.86;51.37
43125;BME280;49182;50.788;7.318;2024-03-02T14:02:24;99392.66;;;15.15;51.34
43125;BME280;49182;50.788;7.318;2024-03-02T14:07:26;99390.81;;;15.15;51.75
43125;BME280;49182;50.788;7.318;2024-03-02T14:12:28;99372.38;;;15.14;52.00
43125;BME280;49182;50.788;7.318;2024-03-02T14:17:31;99359.03;;;15.35;51.38
43125;BME280;49182;50.788;7.318;2024-03-02T14:22:33;99360.72;;;15.77;49.95
43125;BME280;49182;50.788;7.318;2024-03-02T14:27:35;99365.81;;;15.72;48.93
43125;BME280;49182;50.788;7.318;2024-03-02T14:32:58;99361.84;;;15.55;49.00
43125;BME280;49182;50.788;7.318;2024-03-02T14:37:59;99349.03;;;15.44;49.18
43125;BME280;49182;50.788;7.318;2024-03-02T14:43:02;99348.69;;;15.19;49.05
43125;BME280;49182;50.788;7.318;2024-03-02T14:48:06;99347.94;;;14.97;50.64
43125;BME280;49182;50.788;7.318;2024-03-02T14:53:07;99335.59;;;14.89;49.38
43125;BME280;49182;50.788;7.318;2024-03-02T14:58:09;99339.50;;;14.66;50.61
43125;BME280;49182;50.788;7.318;2024-03-02T15:03:12;99330.91;;;14.64;51.05
43125;BME280;49182;50.788;7.318;2024-03-02T15:08:14;99326.34;;;14.57;50.85
43125;BME280;49182;50.788;7.318;2024-03-02T15:13:16;99330.78;;;14.50;50.66
43125;BME280;49182;50.788;7.318;2024-03-02T15:18:19;99335.25;;;14.43;50.76
43125;BME280;49182;50.788;7.318;2024-03-02T15:23:21;99323.25;;;14.33;50.56
43125;BME280;49182;50.788;7.318;2024-03-02T15:28:23;99325.22;;;14.24;51.66
43125;BME280;49182;50.788;7.318;2024-03-02T15:33:26;99329.00;;;14.36;51.77
43125;BME280;49182;50.788;7.318;2024-03-02T15:38:28;99320.41;;;14.34;50.92
43125;BME280;49182;50.788;7.318;2024-03-02T15:43:36;99319.56;;;14.34;51.16
43125;BME280;49182;50.788;7.318;2024-03-02T15:48:39;99309.13;;;14.32;51.33
43125;BME280;49182;50.788;7.318;2024-03-02T15:53:41;99308.88;;;14.27;50.58
43125;BME280;49182;50.788;7.318;2024-03-02T15:58:42;99311.69;;;14.19;50.35
43125;BME280;49182;50.788;7.318;2024-03-02T16:03:45;99304.13;;;14.01;51.06
43125;BME280;49182;50.788;7.318;2024-03-02T16:08:49;99310.75;;;13.91;51.87
43125;BME280;49182;50.788;7.318;2024-03-02T16:13:51;99307.69;;;13.87;51.64
43125;BME280;49182;50.788;7.318;2024-03-02T16:18:54;99312.34;;;13.85;51.47
43125;BME280;49182;50.788;7.318;2024-03-02T16:23:55;99304.13;;;13.80;51.81
43125;BME280;49182;50.788;7.318;2024-03-02T16:28:57;99317.66;;;13.70;52.03
43125;BME280;49182;50.788;7.318;2024-03-02T16:34:00;99308.63;;;13.65;52.07
43125;BME280;49182;50.788;7.318;2024-03-02T16:39:02;99309.50;;;13.51;52.94
43125;BME280;49182;50.788;7.318;2024-03-02T16:44:04;99300.16;;;13.55;52.35
43125;BME280;49182;50.788;7.318;2024-03-02T16:49:09;99298.25;;;13.49;52.61
43125;BME280;49182;50.788;7.318;2024-03-02T16:54:11;99291.53;;;13.53;52.25
43125;BME280;49182;50.788;7.318;2024-03-02T16:59:12;99296.25;;;13.36;53.42
43125;BME280;49182;50.788;7.318;2024-03-02T17:04:15;99293.31;;;13.31;53.79
43125;BME280;49182;50.788;7.318;2024-03-02T17:09:17;99297.72;;;13.24;53.32
43125;BME280;49182;50.788;7.318;2024-03-02T17:14:19;99309.03;;;13.18;53.69
43125;BME280;49182;50.788;7.318;2024-03-02T17:19:22;99328.66;;;13.09;54.99
43125;BME280;49182;50.788;7.318;2024-03-02T17:24:24;99339.44;;;13.07;54.29
43125;BME280;49182;50.788;7.318;2024-03-02T17:29:26;99330.84;;;13.05;54.48
43125;BME280;49182;50.788;7.318;2024-03-02T17:34:29;99340.16;;;13.01;54.93
43125;BME280;49182;50.788;7.318;2024-03-02T17:39:31;99334.13;;;12.92;55.36
43125;BME280;49182;50.788;7.318;2024-03-02T17:44:32;99339.59;;;12.91;55.24
43125;BME280;49182;50.788;7.318;2024-03-02T17:49:36;99341.78;;;12.87;55.60
43125;BME280;49182;50.788;7.318;2024-03-02T17:54:38;99348.97;;;12.79;55.76
43125;BME280;49182;50.788;7.318;2024-03-02T17:59:39;99359.56;;;12.79;56.16
43125;BME280;49182;50.788;7.318;2024-03-02T18:04:42;99352.81;;;12.76;55.80
43125;BME280;49182;50.788;7.318;2024-03-02T18:09:44;99352.63;;;12.78;56.42
43125;BME280;49182;50.788;7.318;2024-03-02T18:14:46;99354.44;;;12.63;56.55
43125;BME280;49182;50.788;7.318;2024-03-02T18:19:50;99357.97;;;12.55;57.27
43125;BME280;49182;50.788;7.318;2024-03-02T18:24:52;99345.31;;;12.42;59.35
43125;BME280;49182;50.788;7.318;2024-03-02T18:29:54;99355.28;;;12.40;59.80
43125;BME280;49182;50.788;7.318;2024-03-02T18:34:57;99349.66;;;12.35;59.15
43125;BME280;49182;50.788;7.318;2024-03-02T18:39:59;99345.56;;;12.33;58.81
43125;BME280;49182;50.788;7.318;2024-03-02T18:45:01;99351.38;;;12.28;59.50
43125;BME280;49182;50.788;7.318;2024-03-02T18:50:05;99353.72;;;12.23;59.52
43125;BME280;49182;50.788;7.318;2024-03-02T18:55:07;99351.03;;;12.08;59.09
43125;BME280;49182;50.788;7.318;2024-03-02T19:00:10;99338.53;;;12.17;59.37
43125;BME280;49182;50.788;7.318;2024-03-02T19:05:16;99351.72;;;12.25;58.91
43125;BME280;49182;50.788;7.318;2024-03-02T19:10:18;99354.78;;;12.14;59.62
43125;BME280;49182;50.788;7.318;2024-03-02T19:15:19;99350.06;;;12.01;59.73
43125;BME280;49182;50.788;7.318;2024-03-02T19:20:23;99306.25;;;11.68;60.28
43125;BME280;49182;50.788;7.318;2024-03-02T19:25:24;99346.00;;;11.91;60.28
43125;BME280;49182;50.788;7.318;2024-03-02T19:30:26;99339.47;;;11.79;62.10
43125;BME280;49182;50.788;7.318;2024-03-02T19:35:29;99331.69;;;11.77;60.82
43125;BME280;49182;50.788;7.318;2024-03-02T19:40:31;99328.88;;;11.70;61.57
43125;BME280;49182;50.788;7.318;2024-03-02T19:45:32;99327.41;;;11.68;62.30
43125;BME280;49182;50.788;7.318;2024-03-02T19:50:35;99327.44;;;11.60;62.11
43125;BME280;49182;50.788;7.318;2024-03-02T19:55:37;99328.31;;;11.52;63.03
43125;BME280;49182;50.788;7.318;2024-03-02T20:00:39;99314.09;;;11.53;63.34
43125;BME280;49182;50.788;7.318;2024-03-02T20:05:42;99311.81;;;11.42;64.78
43125;BME280;49182;50.788;7.318;2024-03-02T20:10:44;99307.22;;;11.36;66.01
43125;BME280;49182;50.788;7.318;2024-03-02T20:15:48;99299.81;;;11.31;65.62
43125;BME280;49182;50.788;7.318;2024-03-02T20:20:52;99292.25;;;11.20;66.58
43125;BME280;49182;50.788;7.318;2024-03-02T20:25:54;99289.94;;;11.17;65.42
43125;BME280;49182;50.788;7.318;2024-03-02T20:30:55;99278.91;;;11.06;66.50
43125;BME280;49182;50.788;7.318;2024-03-02T20:35:58;99276.25;;;11.14;65.69
43125;BME280;49182;50.788;7.318;2024-03-02T20:41:00;99262.38;;;11.12;66.22
43125;BME280;49182;50.788;7.318;2024-03-02T20:46:02;99271.19;;;11.04;66.82
43125;BME280;49182;50.788;7.318;2024-03-02T20:51:05;99173.53;;;10.41;67.37
43125;BME280;49182;50.788;7.318;2024-03-02T20:56:07;99266.09;;;10.94;68.29
43125;BME280;49182;50.788;7.318;2024-03-02T21:01:11;99261.47;;;10.97;67.66
43125;BME280;49182;50.788;7.318;2024-03-02T21:06:14;99263.97;;;10.90;68.01
43125;BME280;49182;50.788;7.318;2024-03-02T21:11:16;99247.50;;;10.80;67.87
43125;BME280;49182;50.788;7.318;2024-03-02T21:16:17;99269.91;;;10.84;68.99
43125;BME280;49182;50.788;7.318;2024-03-02T21:21:21;99264.13;;;10.80;69.93
43125;BME280;49182;50.788;7.318;2024-03-02T21:26:23;99264.81;;;10.82;69.73
43125;BME280;49182;50.788;7.318;2024-03-02T21:31:24;99259.53;;;10.82;70.33
43125;BME280;49182;50.788;7.318;2024-03-02T21:36:27;99269.75;;;10.85;70.50
43125;BME280;49182;50.788;7.318;2024-03-02T21:41:29;99271.41;;;10.78;71.06
43125;BME280;49182;50.788;7.318;2024-03-02T21:46:31;99277.84;;;10.76;71.65
43125;BME280;49182;50.788;7.318;2024-03-02T21:51:34;99279.34;;;10.78;72.18
43125;BME280;49182;50.788;7.318;2024-03-02T21:56:35;99282.31;;;10.75;72.40
43125;BME280;49182;50.788;7.318;2024-03-02T22:01:37;99281.63;;;10.81;72.30
43125;BME280;49182;50.788;7.318;2024-03-02T22:06:40;99278.69;;;10.76;72.65
43125;BME280;49182;50.788;7.318;2024-03-02T22:11:42;99284.13;;;10.75;72.87
43125;BME280;49182;50.788;7.318;2024-03-02T22:16:43;99292.03;;;10.75;73.49
43125;BME280;49182;50.788;7.318;2024-03-02T22:21:47;99302.94;;;10.64;73.79
43125;BME280;49182;50.788;7.318;2024-03-02T22:26:49;99295.03;;;10.64;73.45
43125;BME280;49182;50.788;7.318;2024-03-02T22:31:50;99327.06;;;10.61;74.25
43125;BME280;49182;50.788;7.318;2024-03-02T22:36:53;99337.59;;;10.77;73.29
43125;BME280;49182;50.788;7.318;2024-03-02T22:41:55;99353.94;;;10.72;73.45
43125;BME280;49182;50.788;7.318;2024-03-02T22:46:56;99339.72;;;10.57;74.25
43125;BME280;49182;50.788;7.318;2024-03-02T22:51:59;99324.25;;;10.54;75.45
43125;BME280;49182;50.788;7.318;2024-03-02T22:57:01;99323.59;;;10.36;76.65
43125;BME280;49182;50.788;7.318;2024-03-02T23:02:03;99324.91;;;10.24;77.61
43125;BME280;49182;50.788;7.318;2024-03-02T23:07:07;99317.47;;;10.27;77.39
43125;BME280;49182;50.788;7.318;2024-03-02T23:12:08;99306.09;;;10.27;78.00
43125;BME280;49182;50.788;7.318;2024-03-02T23:17:10;99283.34;;;10.34;77.24
43125;BME280;49182;50.788;7.318;2024-03-02T23:22:13;99274.44;;;10.43;76.31
43125;BME280;49182;50.788;7.318;2024-03-02T23:27:16;99269.66;;;10.46;75.42
43125;BME280;49182;50.788;7.318;2024-03-02T23:32:18;99240.66;;;10.30;74.92
43125;BME280;49182;50.788;7.318;2024-03-02T23:37:20;99260.59;;;10.49;74.48
43125;BME280;49182;50.788;7.318;2024-03-02T23:42:22;99138.63;;;9.74;74.71
43125;BME280;49182;50.788;7.318;2024-03-02T23:47:24;99253.81;;;10.38;74.81
43125;BME280;49182;50.788;7.318;2024-03-02T23:52:28;99250.06;;;10.17;75.72
43125;BME280;49182;50.788;7.318;2024-03-02T23:57:30;99260.56;;;10.08;76.10
